sensor_id;sensor_type;location;lat;lon;timestamp;pressure;altitude;pressure_sealevel;temperature;humidity
37878;BME280;23715;53.652;8.516;2023-07-22T00:01:57;101198.62;;;16.89;100.00
37878;BME280;23715;53.652;8.516;2023-07-22T00:06:57;101196.02;;;16.79;100.00
37878;BME280;23715;53.652;8.516;2023-07-22T00:11:57;101184.61;;;16.72;100.00
37878;BME280;23715;53.652;8.516;2023-07-22T00:16:58;101184.42;;;16.35;100.00
37878;BME280;23715;53.652;8.516;2023-07-22T00:21:57;101187.13;;;16.31;100.00
37878;BME280;23715;53.652;8.516;2023-07-22T00:26:57;101185.92;;;16.29;100.00
37878;BME280;23715;53.652;8.516;2023-07-22T00:31:58;101188.10;;;16.26;100.00
37878;BME280;23715;53.652;8.516;2023-07-22T00:36:58;101192.20;;;15.99;100.00
37878;BME280;23715;53.652;8.516;2023-07-22T00:41:58;101206.36;;;15.71;100.00
37878;BME280;23715;53.652;8.516;2023-07-22T00:46:59;101223.77;;;15.83;100.00
37878;BME280;23715;53.652;8.516;2023-07-22T00:52:01;101221.42;;;15.88;100.00
37878;BME280;23715;53.652;8.516;2023-07-22T00:57:05;101227.26;;;15.97;100.00
37878;BME280;23715;53.652;8.516;2023-07-22T01:02:07;101220.06;;;16.10;100.00
37878;BME280;23715;53.652;8.516;2023-07-22T01:07:07;101223.37;;;16.26;100.00
37878;BME280;23715;53.652;8.516;2023-07-22T01:12:09;101204.11;;;16.37;100.00
37878;BME280;23715;53.652;8.516;2023-07-22T01:17:11;101201.03;;;16.02;100.00
37878;BME280;23715;53.652;8.516;2023-07-22T01:22:13;101201.12;;;16.18;100.00
37878;BME280;23715;53.652;8.516;2023-07-22T01:27:14;101200.43;;;16.16;100.00
37878;BME280;23715;53.652;8.516;2023-07-22T01:32:14;101198.11;;;15.99;100.00
37878;BME280;23715;53.652;8.516;2023-07-22T01:37:16;101204.72;;;15.96;100.00
37878;BME280;23715;53.652;8.516;2023-07-22T01:42:17;101198.09;;;15.95;100.00
37878;BME280;23715;53.652;8.516;2023-07-22T01:47:17;101204.70;;;15.74;100.00
37878;BME280;23715;53.652;8.516;2023-07-22T01:52:17;101216.18;;;15.72;100.00
37878;BME280;23715;53.652;8.516;2023-07-22T01:57:17;101223.89;;;15.63;100.00
37878;BME280;23715;53.652;8.516;2023-07-22T02:02:18;101228.92;;;15.90;100.00
37878;BME280;23715;53.652;8.516;2023-07-22T02:07:19;101246.12;;;16.03;100.00
37878;BME280;23715;53.652;8.516;2023-07-22T02:12:19;101237.50;;;16.03;100.00
37878;BME280;23715;53.652;8.516;2023-07-22T02:17:20;101239.36;;;16.07;100.00
37878;BME280;23715;53.652;8.516;2023-07-22T02:22:20;101242.87;;;16.21;100.00
37878;BME280;23715;53.652;8.516;2023-07-22T02:27:21;101237.71;;;16.36;100.00
37878;BME280;23715;53.652;8.516;2023-07-22T02:32:21;101248.54;;;15.88;100.00
37878;BME280;23715;53.652;8.516;2023-07-22T02:37:21;101254.92;;;15.65;100.00
37878;BME280;23715;53.652;8.516;2023-07-22T02:42:21;101262.28;;;15.86;100.00
37878;BME280;23715;53.652;8.516;2023-07-22T02:47:22;101256.20;;;15.56;100.00
37878;BME280;23715;53.652;8.516;2023-07-22T02:52:22;101254.38;;;15.43;100.00
37878;BME280;23715;53.652;8.516;2023-07-22T02:57:23;101262.95;;;15.52;100.00
37878;BME280;23715;53.652;8.516;2023-07-22T03:02:23;101272.41;;;16.02;100.00
37878;BME280;23715;53.652;8.516;2023-07-22T03:07:23;101284.27;;;15.51;100.00
37878;BME280;23715;53.652;8.516;2023-07-22T03:12:25;101284.06;;;15.76;100.00
37878;BME280;23715;53.652;8.516;2023-07-22T03:17:26;101296.17;;;15.72;100.00
37878;BME280;23715;53.652;8.516;2023-07-22T03:22:26;101295.92;;;15.48;100.00
37878;BME280;23715;53.652;8.516;2023-07-22T03:27:27;101305.11;;;15.51;100.00
37878;BME280;23715;53.652;8.516;2023-07-22T03:32:27;101305.77;;;15.49;100.00
37878;BME280;23715;53.652;8.516;2023-07-22T03:37:28;101304.34;;;15.13;100.00
37878;BME280;23715;53.652;8.516;2023-07-22T03:42:28;101296.02;;;15.42;100.00
37878;BME280;23715;53.652;8.516;2023-07-22T03:47:30;101283.97;;;15.72;100.00
37878;BME280;23715;53.652;8.516;2023-07-22T03:52:30;101261.40;;;15.68;100.00
37878;BME280;23715;53.652;8.516;2023-07-22T03:57:31;101254.11;;;15.68;100.00
37878;BME280;23715;53.652;8.516;2023-07-22T04:02:31;101248.60;;;15.92;100.00
37878;BME280;23715;53.652;8.516;2023-07-22T04:07:32;101244.61;;;16.04;100.00
37878;BME280;23715;53.652;8.516;2023-07-22T04:12:32;101231.84;;;16.18;100.00
37878;BME280;23715;53.652;8.516;2023-07-22T04:17:32;101220.05;;;16.32;100.00
37878;BME280;23715;53.652;8.516;2023-07-22T04:22:33;101216.03;;;16.44;100.00
37878;BME280;23715;53.652;8.516;2023-07-22T04:27:39;101206.39;;;16.50;100.00
37878;BME280;23715;53.652;8.516;2023-07-22T04:32:35;101205.19;;;16.48;100.00
37878;BME280;23715;53.652;8.516;2023-07-22T04:37:35;101210.40;;;16.68;100.00
37878;BME280;23715;53.652;8.516;2023-07-22T04:42:35;101217.36;;;16.70;100.00
37878;BME280;23715;53.652;8.516;2023-07-22T04:47:39;101223.46;;;16.68;100.00
37878;BME280;23715;53.652;8.516;2023-07-22T04:52:42;101226.69;;;16.68;100.00
37878;BME280;23715;53.652;8.516;2023-07-22T04:57:43;101233.87;;;16.77;100.00
37878;BME280;23715;53.652;8.516;2023-07-22T05:02:44;101235.66;;;16.94;100.00
37878;BME280;23715;53.652;8.516;2023-07-22T05:07:45;101240.11;;;17.04;100.00
37878;BME280;23715;53.652;8.516;2023-07-22T05:12:44;101243.03;;;16.80;100.00
37878;BME280;23715;53.652;8.516;2023-07-22T05:17:45;101245.66;;;16.94;100.00
37878;BME280;23715;53.652;8.516;2023-07-22T05:22:45;101238.71;;;17.00;100.00
37878;BME280;23715;53.652;8.516;2023-07-22T05:27:45;101240.30;;;17.14;100.00
37878;BME280;23715;53.652;8.516;2023-07-22T05:32:45;101247.61;;;17.18;100.00
37878;BME280;23715;53.652;8.516;2023-07-22T05:37:45;101250.38;;;17.39;100.00
37878;BME280;23715;53.652;8.516;2023-07-22T05:42:47;101238.67;;;17.54;100.00
37878;BME280;23715;53.652;8.516;2023-07-22T05:47:50;101248.35;;;17.45;100.00
37878;BME280;23715;53.652;8.516;2023-07-22T05:52:51;101252.42;;;17.32;100.00
37878;BME280;23715;53.652;8.516;2023-07-22T05:57:51;101260.56;;;17.28;100.00
37878;BME280;23715;53.652;8.516;2023-07-22T06:02:51;101263.67;;;17.58;100.00
37878;BME280;23715;53.652;8.516;2023-07-22T06:07:51;101267.89;;;17.40;100.00
37878;BME280;23715;53.652;8.516;2023-07-22T06:12:53;101263.67;;;17.58;100.00
37878;BME280;23715;53.652;8.516;2023-07-22T06:17:53;101265.81;;;17.30;100.00
37878;BME280;23715;53.652;8.516;2023-07-22T06:22:54;101270.14;;;17.53;100.00
37878;BME280;23715;53.652;8.516;2023-07-22T06:27:54;101266.94;;;17.74;100.00
37878;BME280;23715;53.652;8.516;2023-07-22T06:32:57;101273.59;;;17.96;100.00
37878;BME280;23715;53.652;8.516;2023-07-22T06:37:58;101272.92;;;17.86;100.00
37878;BME280;23715;53.652;8.516;2023-07-22T06:43:08;101271.56;;;17.86;100.00
37878;BME280;23715;53.652;8.516;2023-07-22T06:48:05;101267.48;;;18.02;100.00
37878;BME280;23715;53.652;8.516;2023-07-22T06:53:05;101270.52;;;18.24;100.00
37878;BME280;23715;53.652;8.516;2023-07-22T06:58:06;101273.14;;;18.73;100.00
37878;BME280;23715;53.652;8.516;2023-07-22T07:03:09;101278.98;;;18.58;100.00
37878;BME280;23715;53.652;8.516;2023-07-22T07:08:09;101283.27;;;18.48;100.00
37878;BME280;23715;53.652;8.516;2023-07-22T07:13:10;101284.26;;;18.59;100.00
37878;BME280;23715;53.652;8.516;2023-07-22T07:18:10;101293.15;;;18.37;100.00
37878;BME280;23715;53.652;8.516;2023-07-22T07:23:10;101292.94;;;18.54;100.00
37878;BME280;23715;53.652;8.516;2023-07-22T07:28:13;101296.37;;;18.44;100.00
37878;BME280;23715;53.652;8.516;2023-07-22T07:33:14;101296.37;;;18.44;100.00
37878;BME280;23715;53.652;8.516;2023-07-22T07:38:14;101294.08;;;18.68;100.00
37878;BME280;23715;53.652;8.516;2023-07-22T07:43:16;101285.42;;;18.69;100.00
37878;BME280;23715;53.652;8.516;2023-07-22T07:48:16;101293.66;;;19.08;100.00
37878;BME280;23715;53.652;8.516;2023-07-22T07:53:19;101296.75;;;19.01;100.00
37878;BME280;23715;53.652;8.516;2023-07-22T07:58:20;101291.16;;;18.90;100.00
37878;BME280;23715;53.652;8.516;2023-07-22T08:03:20;101297.25;;;19.05;100.00
37878;BME280;23715;53.652;8.516;2023-07-22T08:08:20;101301.11;;;18.54;100.00
37878;BME280;23715;53.652;8.516;2023-07-22T08:13:20;101312.50;;;18.70;100.00
37878;BME280;23715;53.652;8.516;2023-07-22T08:18:21;101301.72;;;18.94;100.00
37878;BME280;23715;53.652;8.516;2023-07-22T08:23:21;101302.31;;;19.16;100.00
37878;BME280;23715;53.652;8.516;2023-07-22T08:28:21;101294.76;;;19.26;100.00
37878;BME280;23715;53.652;8.516;2023-07-22T08:33:22;101303.58;;;19.33;100.00
37878;BME280;23715;53.652;8.516;2023-07-22T08:38:23;101298.45;;;19.38;100.00
37878;BME280;23715;53.652;8.516;2023-07-22T08:43:23;101301.87;;;19.36;100.00
37878;BME280;23715;53.652;8.516;2023-07-22T08:48:26;101304.78;;;19.61;100.00
37878;BME280;23715;53.652;8.516;2023-07-22T08:53:26;101301.84;;;19.71;100.00
37878;BME280;23715;53.652;8.516;2023-07-22T08:58:27;101313.77;;;19.97;100.00
37878;BME280;23715;53.652;8.516;2023-07-22T09:03:29;101310.69;;;20.00;100.00
37878;BME280;23715;53.652;8.516;2023-07-22T09:08:29;101300.96;;;20.21;100.00
37878;BME280;23715;53.652;8.516;2023-07-22T09:13:32;101287.80;;;20.01;100.00
37878;BME280;23715;53.652;8.516;2023-07-22T09:18:34;101296.69;;;19.99;100.00
37878;BME280;23715;53.652;8.516;2023-07-22T09:23:38;101299.17;;;19.90;100.00
37878;BME280;23715;53.652;8.516;2023-07-22T09:28:55;101296.96;;;20.08;100.00
37878;BME280;23715;53.652;8.516;2023-07-22T09:34:08;101297.70;;;20.21;100.00
37878;BME280;23715;53.652;8.516;2023-07-22T09:39:01;101280.08;;;20.28;100.00
37878;BME280;23715;53.652;8.516;2023-07-22T09:44:02;101286.98;;;20.54;100.00
37878;BME280;23715;53.652;8.516;2023-07-22T09:49:08;101282.56;;;20.53;100.00
37878;BME280;23715;53.652;8.516;2023-07-22T09:54:09;101271.34;;;20.66;100.00
37878;BME280;23715;53.652;8.516;2023-07-22T09:59:11;101267.84;;;20.88;100.00
37878;BME280;23715;53.652;8.516;2023-07-22T10:04:13;101270.23;;;20.86;100.00
37878;BME280;23715;53.652;8.516;2023-07-22T10:09:15;101270.16;;;20.65;100.00
37878;BME280;23715;53.652;8.516;2023-07-22T10:14:18;101281.45;;;20.24;100.00
37878;BME280;23715;53.652;8.516;2023-07-22T10:19:18;101280.75;;;20.26;100.00
37878;BME280;23715;53.652;8.516;2023-07-22T10:24:20;101273.21;;;20.32;100.00
37878;BME280;23715;53.652;8.516;2023-07-22T10:29:21;101280.63;;;20.23;100.00
37878;BME280;23715;53.652;8.516;2023-07-22T10:34:28;101276.70;;;20.22;100.00
37878;BME280;23715;53.652;8.516;2023-07-22T10:39:28;101277.21;;;20.40;100.00
37878;BME280;23715;53.652;8.516;2023-07-22T10:44:33;101262.73;;;20.21;100.00
37878;BME280;23715;53.652;8.516;2023-07-22T10:49:50;101265.72;;;20.30;100.00
37878;BME280;23715;53.652;8.516;2023-07-22T10:54:48;101261.63;;;20.30;100.00
37878;BME280;23715;53.652;8.516;2023-07-22T10:59:50;101262.94;;;20.34;100.00
37878;BME280;23715;53.652;8.516;2023-07-22T11:04:51;101260.75;;;20.15;100.00
37878;BME280;23715;53.652;8.516;2023-07-22T11:09:53;101281.98;;;20.04;100.00
37878;BME280;23715;53.652;8.516;2023-07-22T11:15:01;101285.64;;;19.74;100.00
37878;BME280;23715;53.652;8.516;2023-07-22T11:19:56;101289.35;;;19.77;100.00
37878;BME280;23715;53.652;8.516;2023-07-22T11:24:57;101282.48;;;19.85;100.00
37878;BME280;23715;53.652;8.516;2023-07-22T11:29:58;101290.99;;;19.86;100.00
37878;BME280;23715;53.652;8.516;2023-07-22T11:34:59;101293.86;;;19.93;100.00
37878;BME280;23715;53.652;8.516;2023-07-22T11:40:02;101291.79;;;19.95;100.00
37878;BME280;23715;53.652;8.516;2023-07-22T11:45:02;101307.47;;;19.69;100.00
37878;BME280;23715;53.652;8.516;2023-07-22T11:50:09;101328.09;;;19.37;100.00
37878;BME280;23715;53.652;8.516;2023-07-22T11:55:09;101362.06;;;18.37;100.00
37878;BME280;23715;53.652;8.516;2023-07-22T12:00:11;101365.78;;;17.91;100.00
37878;BME280;23715;53.652;8.516;2023-07-22T12:05:12;101387.15;;;17.78;100.00
37878;BME280;23715;53.652;8.516;2023-07-22T12:10:15;101402.84;;;18.00;100.00
37878;BME280;23715;53.652;8.516;2023-07-22T12:15:22;101410.17;;;18.08;100.00
37878;BME280;23715;53.652;8.516;2023-07-22T12:20:19;101405.97;;;18.22;100.00
37878;BME280;23715;53.652;8.516;2023-07-22T12:25:21;101405.97;;;18.18;100.00
37878;BME280;23715;53.652;8.516;2023-07-22T12:30:21;101408.84;;;18.32;100.00
37878;BME280;23715;53.652;8.516;2023-07-22T12:35:23;101404.61;;;18.67;100.00
37878;BME280;23715;53.652;8.516;2023-07-22T12:40:23;101402.91;;;18.37;100.00
37878;BME280;23715;53.652;8.516;2023-07-22T12:45:23;101402.91;;;18.37;100.00
37878;BME280;23715;53.652;8.516;2023-07-22T12:50:26;101408.16;;;18.14;100.00
37878;BME280;23715;53.652;8.516;2023-07-22T12:55:26;101395.41;;;18.51;100.00
37878;BME280;23715;53.652;8.516;2023-07-22T13:00:28;101385.70;;;18.65;100.00
37878;BME280;23715;53.652;8.516;2023-07-22T13:05:28;101381.44;;;18.63;100.00
37878;BME280;23715;53.652;8.516;2023-07-22T13:10:29;101372.58;;;18.85;100.00
37878;BME280;23715;53.652;8.516;2023-07-22T13:15:31;101366.80;;;18.88;100.00
37878;BME280;23715;53.652;8.516;2023-07-22T13:20:32;101358.28;;;18.91;100.00
37878;BME280;23715;53.652;8.516;2023-07-22T13:25:32;101353.81;;;18.99;100.00
37878;BME280;23715;53.652;8.516;2023-07-22T13:30:32;101346.51;;;18.91;100.00
37878;BME280;23715;53.652;8.516;2023-07-22T13:35:37;101352.81;;;18.96;100.00
37878;BME280;23715;53.652;8.516;2023-07-22T13:40:37;101349.41;;;18.77;100.00
37878;BME280;23715;53.652;8.516;2023-07-22T13:45:41;101346.36;;;18.68;100.00
37878;BME280;23715;53.652;8.516;2023-07-22T13:50:41;101344.82;;;18.73;100.00
37878;BME280;23715;53.652;8.516;2023-07-22T13:55:42;101329.66;;;18.87;100.00
37878;BME280;23715;53.652;8.516;2023-07-22T14:00:48;101327.62;;;18.77;100.00
37878;BME280;23715;53.652;8.516;2023-07-22T14:05:49;101332.90;;;18.87;100.00
37878;BME280;23715;53.652;8.516;2023-07-22T14:10:50;101335.27;;;18.78;100.00
37878;BME280;23715;53.652;8.516;2023-07-22T14:15:50;101323.20;;;18.84;100.00
37878;BME280;23715;53.652;8.516;2023-07-22T14:20:51;101335.79;;;18.85;100.00
37878;BME280;23715;53.652;8.516;2023-07-22T14:25:55;101334.97;;;18.81;100.00
37878;BME280;23715;53.652;8.516;2023-07-22T14:30:53;101324.59;;;18.80;100.00
37878;BME280;23715;53.652;8.516;2023-07-22T14:35:53;101320.27;;;18.98;100.00
37878;BME280;23715;53.652;8.516;2023-07-22T14:40:57;101311.27;;;18.85;100.00
37878;BME280;23715;53.652;8.516;2023-07-22T14:45:56;101308.20;;;18.72;100.00
37878;BME280;23715;53.652;8.516;2023-07-22T14:50:58;101301.77;;;18.69;100.00
37878;BME280;23715;53.652;8.516;2023-07-22T14:55:58;101275.77;;;18.50;100.00
37878;BME280;23715;53.652;8.516;2023-07-22T15:00:58;101275.77;;;18.50;100.00
37878;BME280;23715;53.652;8.516;2023-07-22T15:06:00;101279.34;;;18.46;100.00
37878;BME280;23715;53.652;8.516;2023-07-22T15:11:03;101270.30;;;18.54;100.00
37878;BME280;23715;53.652;8.516;2023-07-22T15:16:04;101264.18;;;18.44;100.00
37878;BME280;23715;53.652;8.516;2023-07-22T15:21:04;101251.43;;;18.36;100.00
37878;BME280;23715;53.652;8.516;2023-07-22T15:26:05;101258.23;;;18.36;100.00
37878;BME280;23715;53.652;8.516;2023-07-22T15:31:07;101250.80;;;18.22;100.00
37878;BME280;23715;53.652;8.516;2023-07-22T15:36:13;101253.52;;;18.18;100.00
37878;BME280;23715;53.652;8.516;2023-07-22T15:41:17;101245.71;;;18.06;100.00
37878;BME280;23715;53.652;8.516;2023-07-22T15:46:19;101243.65;;;18.00;100.00
37878;BME280;23715;53.652;8.516;2023-07-22T15:51:19;101241.27;;;17.89;100.00
37878;BME280;23715;53.652;8.516;2023-07-22T15:56:19;101241.25;;;17.76;100.00
37878;BME280;23715;53.652;8.516;2023-07-22T16:01:19;101237.53;;;17.78;100.00
37878;BME280;23715;53.652;8.516;2023-07-22T16:06:19;101243.46;;;17.69;100.00
37878;BME280;23715;53.652;8.516;2023-07-22T16:11:20;101240.73;;;17.69;100.00
37878;BME280;23715;53.652;8.516;2023-07-22T16:16:20;101242.27;;;17.63;100.00
37878;BME280;23715;53.652;8.516;2023-07-22T16:21:20;101247.55;;;17.61;100.00
37878;BME280;23715;53.652;8.516;2023-07-22T16:26:20;101249.39;;;17.52;100.00
37878;BME280;23715;53.652;8.516;2023-07-22T16:31:21;101261.11;;;17.48;100.00
37878;BME280;23715;53.652;8.516;2023-07-22T16:36:24;101252.10;;;17.40;100.00
37878;BME280;23715;53.652;8.516;2023-07-22T16:41:24;101249.39;;;17.48;100.00
37878;BME280;23715;53.652;8.516;2023-07-22T16:46:26;101250.59;;;17.62;100.00
37878;BME280;23715;53.652;8.516;2023-07-22T16:51:26;101247.55;;;17.61;100.00
37878;BME280;23715;53.652;8.516;2023-07-22T16:56:27;101240.55;;;17.50;100.00
37878;BME280;23715;53.652;8.516;2023-07-22T17:01:26;101231.23;;;17.61;100.00
37878;BME280;23715;53.652;8.516;2023-07-22T17:06:26;101222.88;;;17.58;100.00
37878;BME280;23715;53.652;8.516;2023-07-22T17:11:28;101221.03;;;17.63;100.00
37878;BME280;23715;53.652;8.516;2023-07-22T17:16:30;101225.75;;;17.56;100.00
37878;BME280;23715;53.652;8.516;2023-07-22T17:21:31;101227.63;;;17.44;100.00
37878;BME280;23715;53.652;8.516;2023-07-22T17:26:36;101232.39;;;17.46;100.00
37878;BME280;23715;53.652;8.516;2023-07-22T17:31:36;101242.27;;;17.63;100.00
37878;BME280;23715;53.652;8.516;2023-07-22T17:36:37;101229.52;;;17.55;100.00
37878;BME280;23715;53.652;8.516;2023-07-22T17:41:40;101233.59;;;17.60;100.00
37878;BME280;23715;53.652;8.516;2023-07-22T17:46:40;101220.50;;;17.71;100.00
37878;BME280;23715;53.652;8.516;2023-07-22T17:51:44;101218.51;;;17.86;100.00
37878;BME280;23715;53.652;8.516;2023-07-22T17:56:44;101208.12;;;17.98;100.00
37878;BME280;23715;53.652;8.516;2023-07-22T18:01:44;101200.64;;;17.95;100.00
37878;BME280;23715;53.652;8.516;2023-07-22T18:06:44;101198.78;;;17.88;100.00
37878;BME280;23715;53.652;8.516;2023-07-22T18:11:45;101191.29;;;17.90;100.00
37878;BME280;23715;53.652;8.516;2023-07-22T18:16:45;101190.95;;;17.93;100.00
37878;BME280;23715;53.652;8.516;2023-07-22T18:21:45;101189.75;;;17.83;100.00
37878;BME280;23715;53.652;8.516;2023-07-22T18:26:48;101182.43;;;17.84;100.00
37878;BME280;23715;53.652;8.516;2023-07-22T18:31:47;101183.11;;;17.61;100.00
37878;BME280;23715;53.652;8.516;2023-07-22T18:36:49;101181.58;;;17.50;100.00
37878;BME280;23715;53.652;8.516;2023-07-22T18:41:49;101188.02;;;17.70;100.00
37878;BME280;23715;53.652;8.516;2023-07-22T18:46:49;101189.22;;;17.71;100.00
37878;BME280;23715;53.652;8.516;2023-07-22T18:51:49;101183.79;;;17.63;100.00
37878;BME280;23715;53.652;8.516;2023-07-22T18:56:50;101181.23;;;17.66;100.00
37878;BME280;23715;53.652;8.516;2023-07-22T19:01:50;101175.46;;;17.69;100.00
37878;BME280;23715;53.652;8.516;2023-07-22T19:06:51;101160.83;;;17.45;100.00
37878;BME280;23715;53.652;8.516;2023-07-22T19:11:52;101170.52;;;17.60;100.00
37878;BME280;23715;53.652;8.516;2023-07-22T19:16:54;101169.84;;;17.62;100.00
37878;BME280;23715;53.652;8.516;2023-07-22T19:21:54;101159.33;;;17.55;100.00
37878;BME280;23715;53.652;8.516;2023-07-22T19:26:55;101159.65;;;17.56;100.00
37878;BME280;23715;53.652;8.516;2023-07-22T19:31:55;101163.05;;;17.50;100.00
37878;BME280;23715;53.652;8.516;2023-07-22T19:36:56;101162.73;;;17.53;100.00
37878;BME280;23715;53.652;8.516;2023-07-22T19:41:56;101157.95;;;17.43;100.00
37878;BME280;23715;53.652;8.516;2023-07-22T19:46:56;101151.16;;;17.43;100.00
37878;BME280;23715;53.652;8.516;2023-07-22T19:51:58;101157.94;;;17.51;100.00
37878;BME280;23715;53.652;8.516;2023-07-22T19:57:00;101159.15;;;17.40;100.00
37878;BME280;23715;53.652;8.516;2023-07-22T20:02:00;101152.67;;;17.41;100.00
37878;BME280;23715;53.652;8.516;2023-07-22T20:07:04;101147.23;;;17.41;100.00
37878;BME280;23715;53.652;8.516;2023-07-22T20:12:06;101143.85;;;17.27;100.00
37878;BME280;23715;53.652;8.516;2023-07-22T20:17:07;101155.92;;;17.28;100.00
37878;BME280;23715;53.652;8.516;2023-07-22T20:22:07;101158.96;;;17.25;100.00
37878;BME280;23715;53.652;8.516;2023-07-22T20:27:08;101166.76;;;17.16;100.00
37878;BME280;23715;53.652;8.516;2023-07-22T20:32:08;101166.76;;;17.16;100.00
37878;BME280;23715;53.652;8.516;2023-07-22T20:37:08;101167.08;;;17.13;100.00
37878;BME280;23715;53.652;8.516;2023-07-22T20:42:08;101163.67;;;17.07;100.00
37878;BME280;23715;53.652;8.516;2023-07-22T20:47:08;101171.35;;;17.15;100.00
37878;BME280;23715;53.652;8.516;2023-07-22T20:52:08;101166.59;;;17.17;100.00
37878;BME280;23715;53.652;8.516;2023-07-22T20:57:09;101166.27;;;17.21;100.00
37878;BME280;23715;53.652;8.516;2023-07-22T21:02:10;101166.08;;;17.18;100.00
37878;BME280;23715;53.652;8.516;2023-07-22T21:07:13;101157.56;;;17.09;100.00
37878;BME280;23715;53.652;8.516;2023-07-22T21:12:13;101160.97;;;17.11;100.00
37878;BME280;23715;53.652;8.516;2023-07-22T21:17:14;101166.75;;;17.04;100.00
37878;BME280;23715;53.652;8.516;2023-07-22T21:22:14;101160.43;;;16.91;100.00
37878;BME280;23715;53.652;8.516;2023-07-22T21:27:14;101160.63;;;17.02;100.00
37878;BME280;23715;53.652;8.516;2023-07-22T21:32:20;101158.08;;;17.08;100.00
37878;BME280;23715;53.652;8.516;2023-07-22T21:37:17;101149.41;;;17.05;100.00
37878;BME280;23715;53.652;8.516;2023-07-22T21:42:17;101153.44;;;16.88;100.00
37878;BME280;23715;53.652;8.516;2023-07-22T21:47:17;101149.20;;;16.90;100.00
37878;BME280;23715;53.652;8.516;2023-07-22T21:52:18;101154.11;;;16.82;100.00
37878;BME280;23715;53.652;8.516;2023-07-22T21:57:17;101144.64;;;16.90;100.00
37878;BME280;23715;53.652;8.516;2023-07-22T22:02:18;101149.16;;;16.82;100.00
37878;BME280;23715;53.652;8.516;2023-07-22T22:07:18;101150.15;;;16.72;100.00
37878;BME280;23715;53.652;8.516;2023-07-22T22:12:18;101157.24;;;16.65;100.00
37878;BME280;23715;53.652;8.516;2023-07-22T22:17:18;101154.34;;;16.54;100.00
37878;BME280;23715;53.652;8.516;2023-07-22T22:22:19;101161.75;;;16.48;100.00
37878;BME280;23715;53.652;8.516;2023-07-22T22:27:19;101169.56;;;16.43;100.00
37878;BME280;23715;53.652;8.516;2023-07-22T22:32:19;101163.50;;;16.57;100.00
37878;BME280;23715;53.652;8.516;2023-07-22T22:37:19;101156.91;;;16.60;100.00
37878;BME280;23715;53.652;8.516;2023-07-22T22:42:19;101157.77;;;16.65;100.00
37878;BME280;23715;53.652;8.516;2023-07-22T22:47:19;101148.93;;;16.63;100.00
37878;BME280;23715;53.652;8.516;2023-07-22T22:52:19;101149.16;;;16.77;100.00
37878;BME280;23715;53.652;8.516;2023-07-22T22:57:19;101140.77;;;16.54;100.00
37878;BME280;23715;53.652;8.516;2023-07-22T23:02:20;101153.31;;;16.55;100.00
37878;BME280;23715;53.652;8.516;2023-07-22T23:07:20;101154.73;;;16.68;100.00
37878;BME280;23715;53.652;8.516;2023-07-22T23:12:20;101164.23;;;16.68;100.00
37878;BME280;23715;53.652;8.516;2023-07-22T23:17:21;101163.86;;;16.58;100.00
37878;BME280;23715;53.652;8.516;2023-07-22T23:22:21;101180.47;;;16.59;100.00
37878;BME280;23715;53.652;8.516;2023-07-22T23:27:21;101194.39;;;16.56;100.00
37878;BME280;23715;53.652;8.516;2023-07-22T23:32:22;101209.17;;;16.58;100.00
37878;BME280;23715;53.652;8.516;2023-07-22T23:37:22;101235.79;;;16.54;100.00
37878;BME280;23715;53.652;8.516;2023-07-22T23:42:22;101251.42;;;16.61;100.00
37878;BME280;23715;53.652;8.516;2023-07-22T23:47:23;101269.31;;;16.71;100.00
37878;BME280;23715;53.652;8.516;2023-07-22T23:52:22;101276.59;;;16.71;100.00
37878;BME280;23715;53.652;8.516;2023-07-22T23:57:22;101273.39;;;16.71;100.00
